createdAt,value
2019-05-10T00:04:05.408Z,2.13
2019-05-10T00:06:54.212Z,2.60
2019-05-10T00:09:42.797Z,2.37
2019-05-10T00:20:30.875Z,2.40
2019-05-10T00:23:00.903Z,2.43
2019-05-10T00:25:31.448Z,3.00
2019-05-10T00:28:41.898Z,3.47
2019-05-10T00:31:11.734Z,2.80
2019-05-10T00:34:20.566Z,2.90
2019-05-10T00:43:06.215Z,2.83
2019-05-10T00:45:35.552Z,3.00
2019-05-10T00:48:05.819Z,2.60
2019-05-10T00:50:35.261Z,2.80
2019-05-10T00:53:04.791Z,2.53
2019-05-10T00:58:30.882Z,2.70
2019-05-10T01:01:00.247Z,2.80
2019-05-10T01:04:09.190Z,2.93
2019-05-10T01:09:40.995Z,2.73
2019-05-10T01:12:10.865Z,3.07
2019-05-10T01:14:40.316Z,2.77
2019-05-10T01:17:31.325Z,2.77
2019-05-10T01:23:02.264Z,2.83
2019-05-10T01:25:35.599Z,2.83
2019-05-10T01:28:04.182Z,3.10
2019-05-10T01:30:34.108Z,2.60
2019-05-10T01:33:03.895Z,3.40
2019-05-10T01:35:33.492Z,2.80
2019-05-10T01:38:03.529Z,2.77
2019-05-10T01:40:33.363Z,2.70
2019-05-10T01:43:22.200Z,2.70
2019-05-10T01:45:51.610Z,2.70
2019-05-10T01:49:00.712Z,2.70
2019-05-10T01:54:44.647Z,2.70
2019-05-10T01:57:14.436Z,3.03
2019-05-10T01:59:44.844Z,2.80
2019-05-10T02:02:14.360Z,2.70
2019-05-10T02:05:23.858Z,2.97
2019-05-10T02:10:48.723Z,3.10
2019-05-10T02:13:18.642Z,3.00
2019-05-10T02:15:48.160Z,2.97
2019-05-10T02:18:57.850Z,3.00
2019-05-10T02:21:47.153Z,2.93
2019-05-10T02:24:16.641Z,2.93
2019-05-10T02:30:01.073Z,3.50
2019-05-10T02:32:31.751Z,3.10
2019-05-10T02:35:01.135Z,2.80
2019-05-10T02:38:09.955Z,2.87
2019-05-10T02:40:40.059Z,3.23
2019-05-10T02:43:09.432Z,2.80
2019-05-10T02:45:38.885Z,2.57
2019-05-10T02:48:09.944Z,2.93
2019-05-10T02:51:19.027Z,2.93
2019-05-10T02:53:49.289Z,2.80
2019-05-10T02:56:58.855Z,2.73
2019-05-10T03:08:50.620Z,2.50
2019-05-10T03:14:32.595Z,2.93
2019-05-10T03:20:17.309Z,2.67
2019-05-10T03:25:56.117Z,3.13
2019-05-10T03:28:44.774Z,2.97
2019-05-10T03:31:53.806Z,2.90
2019-05-10T03:34:24.150Z,3.00
2019-05-10T03:36:54.279Z,3.40
2019-05-10T03:42:24.328Z,3.10
2019-05-10T03:48:08.945Z,3.40
2019-05-10T03:50:38.823Z,2.60
2019-05-10T03:56:16.995Z,2.40
2019-05-10T04:02:01.622Z,2.27
2019-05-10T04:04:31.557Z,2.40
2019-05-10T04:07:00.970Z,2.03
2019-05-10T04:10:09.712Z,2.20
2019-05-10T04:12:40.117Z,2.10
2019-05-10T04:15:48.929Z,2.23
2019-05-10T04:21:08.100Z,1.80
2019-05-10T04:23:37.460Z,2.10
2019-05-10T04:26:06.942Z,2.27
2019-05-10T04:28:36.407Z,2.47
2019-05-10T04:31:05.855Z,2.13
2019-05-10T04:33:35.367Z,1.83
2019-05-10T04:36:05.071Z,1.50
2019-05-10T04:38:34.516Z,1.80
2019-05-10T04:41:04.114Z,1.90
2019-05-10T04:43:33.609Z,1.73
2019-05-10T04:46:42.298Z,2.30
2019-05-10T04:49:11.954Z,2.20
2019-05-10T04:51:41.504Z,1.97
2019-05-10T04:54:11.064Z,1.60
2019-05-10T05:02:36.699Z,2.20
2019-05-10T05:05:45.888Z,1.60
2019-05-10T05:08:16.136Z,2.23
2019-05-10T05:13:54.274Z,2.73
2019-05-10T05:17:03.311Z,2.00
2019-05-10T05:19:34.062Z,1.77
2019-05-10T05:22:04.802Z,2.30
2019-05-10T05:25:14.252Z,1.60
2019-05-10T05:30:40.390Z,2.07
2019-05-10T05:33:10.245Z,1.80
2019-05-10T05:36:19.159Z,1.87
2019-05-10T05:44:30.503Z,1.80
2019-05-10T05:47:42.465Z,1.30
2019-05-10T05:50:50.748Z,1.43
2019-05-10T05:53:22.507Z,1.60
2019-05-10T05:55:55.022Z,1.83
2019-05-10T05:59:03.826Z,2.33
2019-05-10T06:01:33.902Z,2.13
2019-05-10T06:04:06.318Z,1.50
2019-05-10T06:06:35.714Z,1.30
2019-05-10T06:09:44.776Z,1.40
2019-05-10T06:15:35.175Z,1.60
2019-05-10T06:21:25.188Z,2.10
2019-05-10T06:23:51.022Z,1.20
2019-05-10T06:29:30.181Z,1.30
2019-05-10T06:31:59.709Z,1.07
2019-05-10T06:35:14.280Z,1.30
2019-05-10T06:37:42.952Z,1.40
2019-05-10T06:43:13.257Z,1.40
2019-05-10T06:45:46.645Z,1.60
2019-05-10T06:48:13.197Z,1.30
2019-05-10T06:53:41.614Z,1.53
2019-05-10T06:56:28.878Z,1.60
2019-05-10T06:59:12.226Z,1.57
2019-05-10T07:01:30.039Z,1.50
2019-05-10T07:03:59.528Z,1.23
2019-05-10T07:07:10.217Z,1.40
2019-05-10T07:10:01.713Z,1.33
2019-05-10T07:12:15.187Z,1.93
2019-05-10T07:14:45.848Z,1.10
2019-05-10T07:17:15.397Z,1.23
2019-05-10T07:20:29.652Z,1.97
2019-05-10T07:23:08.339Z,1.10
2019-05-10T07:28:57.523Z,1.30
2019-05-10T07:31:24.159Z,1.27
2019-05-10T07:33:56.001Z,1.50
2019-05-10T07:36:27.048Z,1.60
2019-05-10T07:42:31.280Z,1.53
2019-05-10T07:45:01.262Z,1.50
2019-05-10T07:47:50.637Z,1.63
2019-05-10T07:53:31.978Z,1.53
2019-05-10T07:56:20.836Z,1.53
2019-05-10T07:58:50.241Z,2.07
2019-05-10T08:01:29.010Z,1.60
2019-05-10T08:03:52.753Z,1.63
2019-05-10T08:06:23.782Z,1.70
2019-05-10T08:08:55.541Z,1.37
2019-05-10T08:11:25.105Z,1.40
2019-05-10T08:13:57.885Z,1.70
2019-05-10T08:16:26.486Z,1.40
2019-05-10T08:19:00.904Z,1.73
2019-05-10T08:21:27.889Z,1.90
2019-05-10T08:27:14.867Z,1.47
2019-05-10T08:29:44.703Z,1.83
2019-05-10T08:32:14.621Z,1.60
2019-05-10T08:34:52.054Z,1.67
2019-05-10T08:37:19.295Z,1.63
2019-05-10T08:39:49.553Z,1.40
2019-05-10T08:42:34.718Z,1.60
2019-05-10T08:44:53.641Z,1.70
2019-05-10T08:50:36.766Z,1.83
2019-05-10T08:52:56.299Z,1.43
2019-05-10T08:55:22.662Z,1.47
2019-05-10T09:01:14.644Z,1.80
2019-05-10T09:03:28.068Z,1.50
2019-05-10T09:06:05.255Z,1.30
2019-05-10T09:08:34.014Z,1.50
2019-05-10T09:11:06.517Z,1.33
2019-05-10T09:14:19.839Z,1.80
2019-05-10T09:16:56.502Z,1.50
2019-05-10T09:19:41.061Z,1.50
2019-05-10T09:22:08.171Z,1.50
2019-05-10T09:24:43.086Z,1.70
2019-05-10T09:27:09.193Z,1.10
2019-05-10T09:29:38.571Z,1.30
2019-05-10T09:32:08.411Z,1.40
2019-05-10T09:35:17.595Z,1.47
2019-05-10T09:37:54.109Z,1.73
2019-05-10T09:40:22.036Z,1.50
2019-05-10T09:42:52.329Z,1.43
2019-05-10T09:45:24.375Z,1.60
2019-05-10T09:47:54.917Z,1.70
2019-05-10T09:50:24.522Z,1.40
2019-05-10T09:52:54.523Z,1.60
2019-05-10T09:55:28.068Z,1.73
2019-05-10T09:57:59.062Z,2.10
2019-05-10T10:01:17.933Z,1.23
2019-05-10T10:09:47.752Z,1.50
2019-05-10T10:12:17.661Z,1.30
2019-05-10T10:14:49.079Z,1.90
2019-05-10T10:17:20.566Z,1.47
2019-05-10T10:19:50.278Z,1.63
2019-05-10T10:25:17.568Z,1.80
2019-05-10T10:27:48.047Z,1.90
2019-05-10T10:31:02.966Z,1.63
2019-05-10T10:36:30.434Z,2.00
2019-05-10T10:39:22.934Z,1.60
2019-05-10T10:48:02.444Z,1.60
2019-05-10T10:56:50.187Z,1.67
2019-05-10T10:59:19.713Z,2.20
2019-05-10T11:01:56.648Z,1.63
2019-05-10T11:04:20.316Z,1.80
2019-05-10T11:10:15.209Z,1.60
2019-05-10T11:13:23.803Z,2.00
2019-05-10T11:18:43.706Z,2.20
2019-05-10T11:21:52.519Z,1.90
2019-05-10T11:27:18.309Z,2.30
2019-05-10T11:30:29.042Z,1.43
2019-05-10T11:35:57.608Z,1.80
2019-05-10T11:41:52.999Z,1.80
2019-05-10T11:44:22.095Z,1.70
2019-05-10T11:46:51.297Z,1.43
2019-05-10T11:50:06.100Z,1.70
2019-05-10T11:52:34.918Z,1.60
2019-05-10T11:55:22.108Z,1.43
2019-05-10T12:00:28.402Z,1.53
2019-05-10T12:03:07.435Z,1.40
2019-05-10T12:05:27.020Z,1.60
2019-05-10T12:07:58.134Z,1.37
2019-05-10T12:10:27.570Z,1.30
2019-05-10T12:15:32.671Z,1.27
2019-05-10T12:21:00.142Z,1.83
2019-05-10T12:24:10.340Z,1.40
2019-05-10T12:25:59.518Z,2.17
2019-05-10T12:26:16.312Z,1.43
2019-05-10T12:26:31.279Z,1.40
2019-05-10T12:29:11.499Z,1.77
2019-05-10T12:31:31.609Z,1.40
2019-05-10T12:34:08.872Z,1.70
2019-05-10T12:36:32.931Z,1.60
2019-05-10T12:39:03.683Z,1.60
2019-05-10T12:41:39.755Z,1.80
2019-05-10T12:44:07.380Z,1.60
2019-05-10T12:47:21.316Z,1.40
2019-05-10T12:49:53.866Z,1.73
2019-05-10T12:58:14.977Z,1.50
2019-05-10T13:03:54.648Z,1.70
2019-05-10T13:06:24.652Z,1.87
2019-05-10T13:08:54.299Z,1.70
2019-05-10T13:11:25.290Z,1.50
2019-05-10T13:13:55.010Z,1.73
2019-05-10T13:16:24.442Z,1.47
2019-05-10T13:18:53.889Z,1.70
2019-05-10T13:27:39.870Z,1.50
2019-05-10T13:33:29.048Z,1.67
2019-05-10T13:35:56.690Z,1.73
2019-05-10T13:38:27.965Z,1.23
2019-05-10T13:40:57.904Z,1.30
2019-05-10T13:43:28.418Z,1.73
2019-05-10T13:45:58.376Z,1.70
2019-05-10T13:48:27.962Z,2.47
2019-05-10T13:50:57.573Z,1.60
2019-05-10T13:53:27.116Z,1.60
2019-05-10T13:59:48.762Z,2.10
2019-05-10T14:05:30.679Z,1.83
2019-05-10T14:08:00.156Z,1.43
2019-05-10T14:10:29.543Z,1.20
2019-05-10T14:13:02.379Z,1.40
2019-05-10T14:15:32.352Z,1.53
2019-05-10T14:20:58.068Z,1.73
2019-05-10T14:23:28.806Z,1.63
2019-05-10T14:25:59.046Z,1.77
2019-05-10T14:28:28.615Z,1.97
2019-05-10T14:30:59.053Z,1.80
2019-05-10T14:33:30.364Z,2.37
2019-05-10T14:36:03.353Z,1.70
2019-05-10T14:38:32.889Z,1.77
2019-05-10T14:41:03.874Z,1.90
2019-05-10T14:43:35.590Z,1.67
2019-05-10T14:46:05.422Z,2.30
2019-05-10T14:48:35.645Z,1.80
2019-05-10T14:51:11.267Z,1.80
2019-05-10T14:53:36.466Z,1.90
2019-05-10T14:56:07.982Z,2.03
2019-05-10T14:58:37.200Z,2.07
2019-05-10T15:04:49.169Z,1.70
2019-05-10T15:07:08.759Z,1.67
2019-05-10T15:09:36.375Z,2.00
2019-05-10T15:12:10.230Z,1.83
2019-05-10T15:14:37.628Z,1.80
2019-05-10T15:17:07.225Z,1.90
2019-05-10T15:19:37.009Z,1.87
2019-05-10T15:22:06.369Z,1.70
2019-05-10T15:24:35.826Z,2.00
2019-05-10T15:30:05.325Z,2.20
2019-05-10T15:32:32.046Z,1.97
2019-05-10T15:35:07.645Z,2.20
2019-05-10T15:37:52.209Z,1.90
2019-05-10T15:43:03.107Z,1.60
2019-05-10T15:45:33.900Z,1.83
2019-05-10T15:48:04.560Z,2.23
2019-05-10T15:50:38.595Z,1.97
2019-05-10T15:53:05.916Z,1.63
2019-05-10T15:55:35.523Z,1.90
2019-05-10T16:01:45.184Z,1.60
2019-05-10T16:04:32.478Z,2.10
2019-05-10T16:07:02.277Z,1.83
2019-05-10T16:09:34.123Z,2.00
2019-05-10T16:12:08.422Z,2.10
2019-05-10T16:14:39.156Z,2.13
2019-05-10T16:17:10.226Z,2.07
2019-05-10T16:19:37.947Z,2.13
2019-05-10T16:22:07.571Z,1.80
2019-05-10T16:24:37.814Z,1.70
2019-05-10T16:27:08.154Z,1.80
2019-05-10T16:29:39.729Z,1.90
2019-05-10T16:32:08.841Z,2.40
2019-05-10T16:34:38.267Z,1.80
2019-05-10T16:37:07.699Z,1.87
2019-05-10T16:39:39.210Z,2.03
2019-05-10T16:42:09.203Z,2.03
2019-05-10T16:44:39.592Z,2.00
2019-05-10T16:47:09.075Z,2.37
2019-05-10T16:49:39.362Z,2.50
2019-05-10T16:52:08.945Z,2.33
2019-05-10T16:54:38.555Z,2.70
2019-05-10T16:57:08.172Z,2.70
2019-05-10T16:59:37.625Z,2.67
2019-05-10T17:02:07.155Z,2.53
2019-05-10T17:04:37.566Z,2.27
2019-05-10T17:07:12.874Z,2.57
2019-05-10T17:09:38.943Z,2.30
2019-05-10T17:12:08.438Z,2.70
2019-05-10T17:14:39.786Z,2.90
2019-05-10T17:17:09.176Z,3.13
2019-05-10T17:19:38.627Z,3.93
2019-05-10T17:22:08.068Z,4.63
2019-05-10T17:24:37.452Z,3.23
2019-05-10T17:27:07.330Z,3.33
2019-05-10T17:29:37.157Z,3.23
2019-05-10T17:32:06.836Z,4.10
2019-05-10T17:34:36.460Z,2.80
2019-05-10T17:37:10.692Z,2.70
2019-05-10T17:39:42.658Z,2.50
2019-05-10T17:42:12.046Z,3.13
2019-05-10T17:44:43.723Z,2.80
2019-05-10T17:47:14.073Z,2.93
2019-05-10T17:49:48.597Z,2.40
2019-05-10T17:52:19.541Z,3.03
2019-05-10T17:54:49.798Z,2.93
2019-05-10T17:57:19.256Z,3.10
2019-05-10T17:59:52.788Z,3.20
2019-05-10T18:02:19.987Z,3.50
2019-05-10T18:04:49.860Z,3.30
2019-05-10T18:07:19.342Z,2.80
2019-05-10T18:09:49.704Z,3.23
2019-05-10T18:12:20.394Z,3.77
2019-05-10T18:14:55.630Z,3.00
2019-05-10T18:17:26.005Z,3.07
2019-05-10T18:19:56.719Z,3.10
2019-05-10T18:22:24.372Z,2.70
2019-05-10T18:24:54.491Z,3.10
2019-05-10T18:27:23.934Z,5.70
2019-05-10T18:29:53.498Z,3.70
2019-05-10T18:32:29.341Z,3.40
2019-05-10T18:34:54.812Z,3.27
2019-05-10T18:37:24.274Z,3.10
2019-05-10T18:39:54.783Z,3.23
2019-05-10T18:42:27.762Z,3.50
2019-05-10T18:44:57.672Z,3.40
2019-05-10T18:47:27.082Z,3.20
2019-05-10T18:49:56.866Z,3.73
2019-05-10T18:52:27.017Z,3.10
2019-05-10T18:54:56.389Z,3.23
2019-05-10T18:57:25.789Z,3.57
2019-05-10T18:59:55.696Z,3.23
2019-05-10T19:02:25.158Z,3.37
2019-05-10T19:04:54.981Z,3.50
2019-05-10T19:07:24.437Z,3.27
2019-05-10T19:09:55.219Z,3.00
2019-05-10T19:12:26.036Z,3.20
2019-05-10T19:14:55.699Z,3.23
2019-05-10T19:17:25.010Z,4.13
2019-05-10T19:19:54.773Z,3.40
2019-05-10T19:22:24.506Z,4.00
2019-05-10T19:24:56.863Z,3.60
2019-05-10T19:27:25.388Z,3.60
2019-05-10T19:29:55.122Z,3.53
2019-05-10T19:32:24.558Z,3.60
2019-05-10T19:34:57.622Z,3.83
2019-05-10T19:37:44.976Z,3.50
2019-05-10T19:42:55.427Z,3.87
2019-05-10T19:48:36.938Z,3.57
2019-05-10T19:51:09.587Z,3.67
2019-05-10T19:53:42.212Z,3.50
2019-05-10T19:56:10.018Z,3.70
2019-05-10T19:58:40.190Z,3.70
2019-05-10T20:04:27.545Z,3.87
2019-05-10T20:06:57.108Z,3.87
2019-05-10T20:12:33.330Z,3.60
2019-05-10T20:18:12.212Z,3.67
2019-05-10T20:21:21.464Z,3.57
2019-05-10T20:24:10.603Z,3.30
2019-05-10T20:26:40.194Z,3.33
2019-05-10T20:32:06.231Z,3.60
2019-05-10T20:43:10.841Z,3.00
2019-05-10T20:46:19.520Z,2.80
2019-05-10T20:49:29.084Z,2.70
2019-05-10T20:57:56.457Z,2.80
2019-05-10T21:01:06.137Z,2.53
2019-05-10T21:03:35.995Z,2.60
2019-05-10T21:06:05.836Z,2.90
2019-05-10T21:08:35.348Z,2.97
2019-05-10T21:11:44.276Z,2.97
2019-05-10T21:14:13.875Z,3.33
2019-05-10T21:16:43.294Z,3.57
2019-05-10T21:19:12.696Z,3.20
2019-05-10T21:21:42.273Z,3.00
2019-05-10T21:24:51.154Z,3.13
2019-05-10T21:28:00.261Z,3.17
2019-05-10T21:30:30.231Z,3.00
2019-05-10T21:33:00.448Z,3.03
2019-05-10T21:35:30.081Z,3.13
2019-05-10T21:37:59.723Z,3.10
2019-05-10T21:40:29.065Z,3.30
2019-05-10T21:48:55.661Z,4.33
2019-05-10T21:51:25.117Z,4.83
2019-05-10T21:54:34.966Z,4.40
2019-05-10T22:06:05.985Z,4.07
2019-05-10T22:13:59.098Z,3.80
2019-05-10T22:16:28.582Z,3.60
2019-05-10T22:21:55.486Z,3.20
2019-05-10T22:24:25.987Z,2.80
2019-05-10T22:26:56.498Z,2.50
2019-05-10T22:29:26.222Z,2.70
2019-05-10T22:31:55.744Z,2.40
2019-05-10T22:35:04.513Z,2.23
2019-05-10T22:37:33.953Z,2.70
2019-05-10T22:40:03.652Z,2.20
2019-05-10T22:45:42.827Z,1.63
2019-05-10T22:48:12.806Z,1.73
2019-05-10T22:50:43.157Z,1.93
2019-05-10T22:53:13.018Z,1.83
2019-05-10T22:55:42.627Z,1.80
2019-05-10T22:58:12.529Z,1.70
2019-05-10T23:01:21.714Z,1.83
2019-05-10T23:06:52.607Z,1.70
2019-05-10T23:09:24.963Z,1.83
2019-05-10T23:11:54.021Z,1.90
2019-05-10T23:15:02.932Z,2.20
2019-05-10T23:17:32.420Z,2.10
2019-05-10T23:20:02.295Z,2.10
2019-05-10T23:22:33.065Z,2.30
2019-05-10T23:25:02.686Z,2.57
2019-05-10T23:27:32.148Z,2.50
2019-05-10T23:30:40.878Z,2.73
2019-05-10T23:33:10.898Z,2.67
2019-05-10T23:35:40.644Z,2.70
2019-05-10T23:38:10.731Z,3.20
2019-05-10T23:41:20.133Z,3.07
2019-05-10T23:47:04.918Z,3.77
2019-05-10T23:50:13.585Z,3.93
2019-05-10T23:55:39.288Z,4.43
